Time;durP1;ratioP1;P1;durP2;ratioP2;P2;SDS_P1;SDS_P2;PMS_P1;PMS_P2;Temp;Humidity;BMP_temperature;BMP_pressure;BME280_temperature;BME280_humidity;BME280_pressure;Samples;Min_cycle;Max_cycle;Signal;HPM_P1;HPM_P2
2023/05/13 00:02:07;;;;;;;;;;;18.50;63.70;;;;;;5027940;28;895;-71
2023/05/13 00:04:32;;;;;;;;;;;18.50;63.70;;;;;;5025636;28;831;-70
2023/05/13 00:06:58;;;;;;;;;;;18.50;63.70;;;;;;5026819;28;1271;-70
2023/05/13 00:09:23;;;;;;;;;;;18.50;63.70;;;;;;5026278;28;1003;-72
2023/05/13 00:11:49;;;;;;;;;;;18.50;63.70;;;;;;5025787;28;886;-70
2023/05/13 00:14:14;;;;;;;;;;;18.50;63.70;;;;;;5029891;28;883;-71
2023/05/13 00:16:40;;;;;;;;;;;18.50;63.70;;;;;;5027716;28;1910;-71
2023/05/13 00:19:05;;;;;;;;;;;18.50;63.70;;;;;;5027507;28;864;-73
2023/05/13 00:21:32;;;;;;;;;;;18.50;63.70;;;;;;5025268;28;1069;-71
2023/05/13 00:23:58;;;;;;;;;;;18.50;63.70;;;;;;5026851;28;902;-71
2023/05/13 00:26:23;;;;;;;;;;;18.50;63.70;;;;;;5023216;28;1379;-70
2023/05/13 00:28:49;;;;;;;;;;;18.50;63.70;;;;;;5030736;28;956;-70
2023/05/13 00:31:14;;;;;;;;;;;18.50;63.70;;;;;;5025197;28;856;-71
2023/05/13 00:33:40;;;;;;;;;;;18.50;63.70;;;;;;5023995;28;1390;-70
2023/05/13 00:36:06;;;;;;;;;;;18.50;63.70;;;;;;5013546;28;1895;-70
2023/05/13 00:38:32;;;;;;;;;;;18.50;63.70;;;;;;5025514;28;1296;-71
2023/05/13 00:40:57;;;;;;;;;;;18.50;63.70;;;;;;5024037;28;879;-68
2023/05/13 00:43:23;;;;;;;;;;;18.50;63.70;;;;;;5026612;28;1279;-71
2023/05/13 00:45:48;;;;;;;;;;;18.50;63.70;;;;;;5028510;28;1311;-69
2023/05/13 00:48:13;;;;;;;;;;;18.50;63.70;;;;;;5022352;28;1344;-71
2023/05/13 00:50:43;;;;;;;;;;;18.50;63.70;;;;;;5024886;28;1372;-70
2023/05/13 00:53:09;;;;;;;;;;;18.50;63.70;;;;;;5028741;28;1679;-67
2023/05/13 00:55:34;;;;;;;;;;;18.50;63.70;;;;;;5025514;28;1973;-70
2023/05/13 00:58:00;;;;;;;;;;;18.50;63.70;;;;;;5010345;28;900;-70
2023/05/13 01:00:26;;;;;;;;;;;18.50;63.70;;;;;;5023241;28;867;-70
2023/05/13 01:02:51;;;;;;;;;;;18.50;63.70;;;;;;5027787;28;871;-70
2023/05/13 01:05:36;;;;;;;;;;;18.50;63.80;;;;;;5029670;28;1292;-70
2023/05/13 01:08:04;;;;;;;;;;;18.50;63.70;;;;;;5026774;28;915;-70
2023/05/13 01:10:30;;;;;;;;;;;18.50;63.80;;;;;;5020016;28;825;-70
2023/05/13 01:12:59;;;;;;;;;;;18.50;63.70;;;;;;5023738;28;862;-70
2023/05/13 01:15:24;;;;;;;;;;;18.50;63.70;;;;;;5025117;28;1347;-71
2023/05/13 01:18:04;;;;;;;;;;;18.50;63.80;;;;;;5028322;28;1910;-71
2023/05/13 01:20:30;;;;;;;;;;;18.50;63.70;;;;;;5011305;28;1304;-70
2023/05/13 01:22:55;;;;;;;;;;;18.50;63.70;;;;;;5020377;28;873;-70
2023/05/13 01:25:21;;;;;;;;;;;18.50;63.80;;;;;;5026384;28;1362;-70
2023/05/13 01:27:47;;;;;;;;;;;18.50;63.70;;;;;;5017157;28;808;-70
2023/05/13 01:30:12;;;;;;;;;;;18.50;63.70;;;;;;5021363;28;1383;-70
2023/05/13 01:32:38;;;;;;;;;;;18.50;63.80;;;;;;5026752;28;935;-70
2023/05/13 01:35:03;;;;;;;;;;;18.50;63.80;;;;;;5024946;28;1277;-70
2023/05/13 01:37:29;;;;;;;;;;;18.50;63.70;;;;;;5022151;28;1922;-70
2023/05/13 01:39:54;;;;;;;;;;;18.50;63.70;;;;;;5030630;28;1383;-70
2023/05/13 01:42:21;;;;;;;;;;;18.50;63.80;;;;;;5031112;28;975;-70
2023/05/13 01:44:47;;;;;;;;;;;18.50;63.70;;;;;;5024929;28;919;-69
2023/05/13 01:47:12;;;;;;;;;;;18.50;63.80;;;;;;5018181;28;1271;-70
2023/05/13 01:49:38;;;;;;;;;;;18.50;63.80;;;;;;5019095;28;829;-71
2023/05/13 01:52:03;;;;;;;;;;;18.50;63.80;;;;;;5024312;28;995;-69
2023/05/13 01:54:29;;;;;;;;;;;18.50;63.80;;;;;;5024896;28;935;-70
2023/05/13 01:56:54;;;;;;;;;;;18.50;63.80;;;;;;5020487;28;1923;-70
2023/05/13 01:59:20;;;;;;;;;;;18.50;63.80;;;;;;5023511;28;875;-71
2023/05/13 02:01:45;;;;;;;;;;;18.50;63.80;;;;;;5022643;28;1053;-70
2023/05/13 02:04:11;;;;;;;;;;;18.50;63.80;;;;;;5024728;28;958;-70
2023/05/13 02:06:36;;;;;;;;;;;18.50;63.80;;;;;;5023137;28;1251;-70
2023/05/13 02:09:02;;;;;;;;;;;18.50;63.80;;;;;;5020134;28;932;-71
2023/05/13 02:11:27;;;;;;;;;;;18.50;63.80;;;;;;5028134;28;1241;-71
2023/05/13 02:13:53;;;;;;;;;;;18.50;63.80;;;;;;5028382;28;1335;-70
2023/05/13 02:16:18;;;;;;;;;;;18.50;63.80;;;;;;5025022;28;1907;-71
2023/05/13 02:18:44;;;;;;;;;;;18.50;63.80;;;;;;5028399;28;1570;-70
2023/05/13 02:21:09;;;;;;;;;;;18.50;63.80;;;;;;5024197;28;1069;-70
2023/05/13 02:23:35;;;;;;;;;;;18.50;63.80;;;;;;5021957;28;809;-70
2023/05/13 02:26:00;;;;;;;;;;;18.50;63.80;;;;;;5025739;28;1362;-70
2023/05/13 02:28:26;;;;;;;;;;;18.50;63.90;;;;;;5022832;28;1329;-70
2023/05/13 02:30:51;;;;;;;;;;;18.50;63.80;;;;;;5022526;28;1617;-70
2023/05/13 02:33:17;;;;;;;;;;;18.50;63.90;;;;;;5019804;28;1456;-70
2023/05/13 02:35:42;;;;;;;;;;;18.50;63.80;;;;;;5019204;28;1918;-70
2023/05/13 02:38:08;;;;;;;;;;;18.50;63.80;;;;;;5022513;28;828;-70
2023/05/13 02:40:33;;;;;;;;;;;18.50;63.80;;;;;;5026027;28;999;-70
2023/05/13 02:42:59;;;;;;;;;;;18.50;63.80;;;;;;5021744;28;853;-70
2023/05/13 02:45:24;;;;;;;;;;;18.50;63.80;;;;;;5022200;28;1239;-70
2023/05/13 02:47:50;;;;;;;;;;;18.50;63.90;;;;;;5025090;28;800;-70
2023/05/13 02:50:16;;;;;;;;;;;18.50;63.90;;;;;;5029229;28;899;-70
2023/05/13 02:52:41;;;;;;;;;;;18.50;63.90;;;;;;5029501;28;792;-69
2023/05/13 02:55:07;;;;;;;;;;;18.50;63.90;;;;;;5023677;28;1275;-70
2023/05/13 02:57:33;;;;;;;;;;;18.50;63.90;;;;;;5027915;28;1894;-69
2023/05/13 02:59:58;;;;;;;;;;;18.50;63.90;;;;;;5023922;28;1006;-71
2023/05/13 03:02:23;;;;;;;;;;;18.50;63.90;;;;;;5027155;28;867;-68
2023/05/13 03:04:49;;;;;;;;;;;18.50;63.90;;;;;;5027288;28;946;-69
2023/05/13 03:07:14;;;;;;;;;;;18.50;63.90;;;;;;5026619;28;1273;-70
2023/05/13 03:09:41;;;;;;;;;;;18.50;63.90;;;;;;5023197;28;1011;-68
2023/05/13 03:12:06;;;;;;;;;;;18.50;63.90;;;;;;5024086;28;970;-68
2023/05/13 03:14:33;;;;;;;;;;;18.50;63.90;;;;;;5027592;28;924;-69
2023/05/13 03:16:59;;;;;;;;;;;18.50;63.90;;;;;;5033450;28;1977;-69
2023/05/13 03:19:24;;;;;;;;;;;18.50;63.90;;;;;;5030139;28;1007;-70
2023/05/13 03:21:50;;;;;;;;;;;18.50;63.90;;;;;;5029837;28;920;-69
2023/05/13 03:24:15;;;;;;;;;;;18.50;63.90;;;;;;5023724;28;911;-69
2023/05/13 03:26:41;;;;;;;;;;;18.50;63.90;;;;;;5024584;28;1244;-69
2023/05/13 03:29:06;;;;;;;;;;;18.50;63.90;;;;;;5027699;28;843;-69
2023/05/13 03:31:32;;;;;;;;;;;18.50;63.90;;;;;;5030746;28;1144;-71
2023/05/13 03:33:57;;;;;;;;;;;18.50;63.90;;;;;;5028857;28;875;-70
2023/05/13 03:36:22;;;;;;;;;;;18.50;63.90;;;;;;5029754;28;1902;-69
2023/05/13 03:38:48;;;;;;;;;;;18.50;63.90;;;;;;5028293;28;1276;-70
2023/05/13 03:41:16;;;;;;;;;;;18.50;63.90;;;;;;5028642;28;1149;-69
2023/05/13 03:43:42;;;;;;;;;;;18.50;63.90;;;;;;5031079;28;855;-70
2023/05/13 03:46:07;;;;;;;;;;;18.50;63.90;;;;;;5030379;28;1356;-70
2023/05/13 03:48:32;;;;;;;;;;;18.50;64.00;;;;;;5029192;28;867;-71
2023/05/13 03:50:58;;;;;;;;;;;18.50;63.90;;;;;;5031903;28;892;-70
2023/05/13 03:53:23;;;;;;;;;;;18.50;63.90;;;;;;5034381;28;1023;-70
2023/05/13 03:55:49;;;;;;;;;;;18.50;63.90;;;;;;5024079;28;1906;-71
2023/05/13 03:58:14;;;;;;;;;;;18.50;63.90;;;;;;5028313;28;856;-71
2023/05/13 04:00:40;;;;;;;;;;;18.50;64.00;;;;;;5026287;28;1022;-71
2023/05/13 04:03:06;;;;;;;;;;;18.50;63.90;;;;;;5025101;28;837;-70
2023/05/13 04:05:31;;;;;;;;;;;18.50;63.90;;;;;;5032925;28;1241;-71
2023/05/13 04:07:57;;;;;;;;;;;18.50;63.90;;;;;;5035975;28;879;-71
2023/05/13 04:10:22;;;;;;;;;;;18.50;63.90;;;;;;5032839;28;871;-71
2023/05/13 04:12:47;;;;;;;;;;;18.50;64.00;;;;;;5030224;28;844;-72
2023/05/13 04:15:13;;;;;;;;;;;18.50;64.00;;;;;;5031146;28;1270;-71
2023/05/13 04:17:38;;;;;;;;;;;18.50;64.00;;;;;;5034577;28;1906;-71
2023/05/13 04:20:04;;;;;;;;;;;18.50;64.70;;;;;;5058413;28;1257;-71
2023/05/13 04:22:30;;;;;;;;;;;18.50;64.00;;;;;;5019533;28;1715;-69
2023/05/13 04:24:56;;;;;;;;;;;18.50;64.00;;;;;;5016567;28;1904;-68
2023/05/13 04:27:22;;;;;;;;;;;18.50;64.00;;;;;;5025171;28;866;-68
2023/05/13 04:29:48;;;;;;;;;;;18.50;64.00;;;;;;5021582;28;940;-69
2023/05/13 04:32:16;;;;;;;;;;;18.50;64.00;;;;;;5023810;28;966;-68
2023/05/13 04:34:42;;;;;;;;;;;18.50;64.00;;;;;;5026894;28;935;-68
2023/05/13 04:37:07;;;;;;;;;;;18.50;64.00;;;;;;5023158;28;1898;-67
2023/05/13 04:39:33;;;;;;;;;;;18.50;64.00;;;;;;5022826;28;1333;-67
2023/05/13 04:41:58;;;;;;;;;;;18.50;64.00;;;;;;5021944;28;887;-67
2023/05/13 04:44:24;;;;;;;;;;;18.50;64.00;;;;;;5019039;28;896;-70
2023/05/13 04:46:49;;;;;;;;;;;18.50;64.00;;;;;;5026849;28;1244;-70
2023/05/13 04:49:15;;;;;;;;;;;18.50;64.00;;;;;;5024290;28;809;-71
2023/05/13 04:51:40;;;;;;;;;;;18.50;64.00;;;;;;5028149;28;1180;-71
2023/05/13 04:54:06;;;;;;;;;;;18.50;64.00;;;;;;5020876;28;915;-69
2023/05/13 04:56:31;;;;;;;;;;;18.50;64.00;;;;;;5023176;28;1894;-70
2023/05/13 04:58:56;;;;;;;;;;;18.50;64.00;;;;;;5017037;28;852;-70
2023/05/13 05:01:22;;;;;;;;;;;18.50;64.00;;;;;;5022379;28;876;-70
2023/05/13 05:03:47;;;;;;;;;;;18.50;64.00;;;;;;5026226;28;813;-69
2023/05/13 05:06:13;;;;;;;;;;;18.50;64.00;;;;;;4990181;28;1169942;-69
2023/05/13 05:08:38;;;;;;;;;;;18.50;64.10;;;;;;5026063;28;808;-67
2023/05/13 05:11:04;;;;;;;;;;;18.50;64.00;;;;;;5030136;28;927;-68
2023/05/13 05:13:29;;;;;;;;;;;18.50;64.00;;;;;;5027145;28;879;-68
2023/05/13 05:15:55;;;;;;;;;;;18.50;64.00;;;;;;5022954;28;1934;-68
2023/05/13 05:18:20;;;;;;;;;;;18.50;64.00;;;;;;5027367;28;1003;-67
2023/05/13 05:20:46;;;;;;;;;;;18.50;64.00;;;;;;5028970;28;1207;-70
2023/05/13 05:23:11;;;;;;;;;;;18.50;64.00;;;;;;5023928;28;1255;-70
2023/05/13 05:25:37;;;;;;;;;;;18.50;64.00;;;;;;5025191;28;1363;-71
2023/05/13 05:28:03;;;;;;;;;;;18.50;64.00;;;;;;5025447;28;845;-70
2023/05/13 05:30:38;;;;;;;;;;;18.50;64.00;;;;;;5030847;28;835;-72
2023/05/13 05:33:06;;;;;;;;;;;18.50;64.00;;;;;;5030699;28;879;-71
2023/05/13 05:35:37;;;;;;;;;;;18.50;64.00;;;;;;5026513;28;1339;-69
2023/05/13 05:38:05;;;;;;;;;;;18.50;64.00;;;;;;5021533;28;912;-69
2023/05/13 05:40:31;;;;;;;;;;;18.50;64.10;;;;;;5027346;28;1331;-69
2023/05/13 05:42:57;;;;;;;;;;;18.50;64.10;;;;;;5025190;28;855;-68
2023/05/13 05:45:22;;;;;;;;;;;18.50;64.00;;;;;;5026093;28;2072;-68
2023/05/13 05:47:48;;;;;;;;;;;18.50;64.00;;;;;;5029134;28;1561;-68
2023/05/13 05:50:13;;;;;;;;;;;18.50;64.10;;;;;;5030322;28;971;-69
2023/05/13 05:52:39;;;;;;;;;;;18.50;64.00;;;;;;5021178;28;1030;-68
2023/05/13 05:55:06;;;;;;;;;;;18.50;64.10;;;;;;5025720;28;1303;-68
2023/05/13 05:57:31;;;;;;;;;;;18.50;64.10;;;;;;5025045;28;1961;-68
2023/05/13 05:59:57;;;;;;;;;;;18.50;64.10;;;;;;5026287;28;902;-69
2023/05/13 06:02:22;;;;;;;;;;;18.50;64.10;;;;;;5026415;28;1014;-69
2023/05/13 06:04:48;;;;;;;;;;;18.50;64.10;;;;;;5025332;28;1197;-70
2023/05/13 06:07:13;;;;;;;;;;;18.50;64.10;;;;;;5022291;28;1282;-70
2023/05/13 06:09:39;;;;;;;;;;;18.50;64.10;;;;;;5032749;28;844;-68
2023/05/13 06:12:04;;;;;;;;;;;18.50;64.10;;;;;;5028801;28;1243;-69
2023/05/13 06:14:30;;;;;;;;;;;18.50;64.10;;;;;;5025822;28;982;-71
2023/05/13 06:16:55;;;;;;;;;;;18.50;64.10;;;;;;5025251;28;1906;-69
2023/05/13 06:19:21;;;;;;;;;;;18.50;64.10;;;;;;5023761;28;907;-70
2023/05/13 06:21:47;;;;;;;;;;;18.50;64.10;;;;;;5023074;28;832;-71
2023/05/13 06:24:13;;;;;;;;;;;18.50;64.10;;;;;;5026569;28;2110;-70
2023/05/13 06:26:38;;;;;;;;;;;18.50;64.10;;;;;;5024225;28;1346;-70
2023/05/13 06:29:03;;;;;;;;;;;18.50;64.10;;;;;;5031767;28;1368;-70
2023/05/13 06:31:29;;;;;;;;;;;18.50;64.10;;;;;;5029055;28;1010;-69
2023/05/13 06:33:55;;;;;;;;;;;18.50;64.90;;;;;;5026494;28;1475;-69
2023/05/13 06:36:20;;;;;;;;;;;18.50;64.10;;;;;;5021284;28;1918;-70
2023/05/13 06:38:45;;;;;;;;;;;18.50;64.10;;;;;;5021657;28;1303;-70
2023/05/13 06:41:11;;;;;;;;;;;18.50;64.10;;;;;;5023766;28;915;-69
2023/05/13 06:43:37;;;;;;;;;;;18.50;64.10;;;;;;5026175;28;824;-69
2023/05/13 06:46:03;;;;;;;;;;;18.50;64.10;;;;;;5024734;28;1269;-70
2023/05/13 06:48:28;;;;;;;;;;;18.50;64.10;;;;;;5024676;28;882;-71
2023/05/13 06:50:54;;;;;;;;;;;18.50;64.10;;;;;;5024829;28;793;-69
2023/05/13 06:53:19;;;;;;;;;;;18.50;64.10;;;;;;5018654;28;931;-69
2023/05/13 06:55:45;;;;;;;;;;;18.50;64.10;;;;;;5017934;28;1979;-70
2023/05/13 06:58:10;;;;;;;;;;;18.50;64.10;;;;;;5018123;28;808;-69
2023/05/13 07:00:36;;;;;;;;;;;18.50;64.10;;;;;;5024296;28;812;-70
2023/05/13 07:03:02;;;;;;;;;;;18.50;64.10;;;;;;5018831;28;1061;-69
2023/05/13 07:05:28;;;;;;;;;;;18.50;64.10;;;;;;5023410;28;2096;-70
2023/05/13 07:07:53;;;;;;;;;;;18.50;64.10;;;;;;5023971;28;1305;-69
2023/05/13 07:10:19;;;;;;;;;;;18.50;64.10;;;;;;5054543;28;1370;-69
2023/05/13 07:12:44;;;;;;;;;;;18.50;64.20;;;;;;5024152;28;1340;-70
2023/05/13 07:15:10;;;;;;;;;;;18.50;64.10;;;;;;5022297;28;1276;-70
2023/05/13 07:17:35;;;;;;;;;;;18.50;64.10;;;;;;5023969;28;1906;-70
2023/05/13 07:20:03;;;;;;;;;;;18.50;64.10;;;;;;5024187;28;886;-69
2023/05/13 07:22:28;;;;;;;;;;;18.50;64.10;;;;;;5018290;28;916;-69
2023/05/13 07:24:55;;;;;;;;;;;18.50;64.10;;;;;;5024318;28;835;-70
2023/05/13 07:27:20;;;;;;;;;;;18.50;64.10;;;;;;5052624;28;1280;-69
2023/05/13 07:29:46;;;;;;;;;;;18.50;64.10;;;;;;5023067;28;880;-70
2023/05/13 07:32:11;;;;;;;;;;;18.50;64.10;;;;;;5025707;28;1417;-69
2023/05/13 07:34:37;;;;;;;;;;;18.50;64.10;;;;;;5025491;28;1018;-70
2023/05/13 07:37:03;;;;;;;;;;;18.50;64.10;;;;;;5019028;28;1960;-70
2023/05/13 07:39:28;;;;;;;;;;;18.50;64.10;;;;;;5016770;28;1276;-70
2023/05/13 07:41:54;;;;;;;;;;;18.50;64.10;;;;;;5024115;28;1478;-69
2023/05/13 07:44:19;;;;;;;;;;;18.50;64.10;;;;;;5029408;28;892;-69
2023/05/13 07:46:45;;;;;;;;;;;18.50;64.10;;;;;;5025217;28;1295;-70
2023/05/13 07:49:10;;;;;;;;;;;18.50;64.10;;;;;;5028637;28;986;-69
2023/05/13 07:51:36;;;;;;;;;;;18.50;64.10;;;;;;5022517;28;818;-69
2023/05/13 07:54:01;;;;;;;;;;;18.50;64.10;;;;;;5027132;28;836;-70
2023/05/13 07:56:27;;;;;;;;;;;18.50;64.10;;;;;;5027565;28;1870;-69
2023/05/13 07:58:52;;;;;;;;;;;18.50;64.10;;;;;;5024260;28;884;-69
2023/05/13 08:01:18;;;;;;;;;;;18.50;64.10;;;;;;5022542;28;880;-69
2023/05/13 08:03:43;;;;;;;;;;;18.50;64.10;;;;;;5029412;28;896;-70
2023/05/13 08:06:09;;;;;;;;;;;18.50;64.20;;;;;;5027291;28;1342;-70
2023/05/13 08:08:35;;;;;;;;;;;18.50;64.10;;;;;;5037382;28;894;-70
2023/05/13 08:11:00;;;;;;;;;;;18.50;64.20;;;;;;5032138;28;842;-70
2023/05/13 08:13:26;;;;;;;;;;;18.50;64.20;;;;;;5019470;28;864;-70
2023/05/13 08:15:52;;;;;;;;;;;18.50;64.20;;;;;;5022086;28;1906;-70
2023/05/13 08:18:18;;;;;;;;;;;18.50;64.20;;;;;;5027061;28;867;-69
2023/05/13 08:20:43;;;;;;;;;;;18.50;64.20;;;;;;5017478;28;868;-69
2023/05/13 08:23:09;;;;;;;;;;;18.50;64.20;;;;;;5034337;28;879;-69
2023/05/13 08:25:34;;;;;;;;;;;18.50;64.20;;;;;;5022566;28;1287;-69
2023/05/13 08:28:00;;;;;;;;;;;18.50;64.20;;;;;;5032453;28;963;-70
2023/05/13 08:30:26;;;;;;;;;;;18.50;64.20;;;;;;5035911;28;919;-70
2023/05/13 08:32:51;;;;;;;;;;;18.50;64.20;;;;;;5020520;28;1427;-69
2023/05/13 08:35:17;;;;;;;;;;;18.50;64.20;;;;;;5022957;28;1355;-69
2023/05/13 08:37:42;;;;;;;;;;;18.50;64.20;;;;;;5023994;28;1902;-70
2023/05/13 08:40:08;;;;;;;;;;;18.50;64.20;;;;;;5029242;28;1322;-69
2023/05/13 08:42:35;;;;;;;;;;;18.50;64.20;;;;;;5027520;28;892;-69
2023/05/13 08:45:02;;;;;;;;;;;18.50;64.20;;;;;;5031014;28;1267;-69
2023/05/13 08:47:28;;;;;;;;;;;18.50;64.20;;;;;;5033755;28;1030;-69
2023/05/13 08:49:53;;;;;;;;;;;18.50;64.20;;;;;;5016918;28;4627;-70
2023/05/13 08:52:18;;;;;;;;;;;18.50;64.20;;;;;;5024849;28;954;-70
2023/05/13 08:54:44;;;;;;;;;;;18.50;64.20;;;;;;5027605;28;810;-69
2023/05/13 08:57:10;;;;;;;;;;;18.50;64.20;;;;;;5028040;28;1918;-69
2023/05/13 08:59:35;;;;;;;;;;;18.50;64.20;;;;;;5025222;28;887;-70
2023/05/13 09:02:02;;;;;;;;;;;18.50;64.20;;;;;;5025356;28;938;-70
2023/05/13 09:04:28;;;;;;;;;;;18.50;64.20;;;;;;5026035;28;844;-69
2023/05/13 09:06:53;;;;;;;;;;;18.50;64.20;;;;;;5030383;28;1213;-70
2023/05/13 09:09:19;;;;;;;;;;;18.50;64.20;;;;;;5036887;28;875;-69
2023/05/13 09:11:46;;;;;;;;;;;18.50;64.20;;;;;;5020112;28;778;-69
2023/05/13 09:14:12;;;;;;;;;;;18.50;64.20;;;;;;5022810;28;959;-70
2023/05/13 09:16:38;;;;;;;;;;;18.50;64.20;;;;;;5026987;28;1871;-70
2023/05/13 09:19:04;;;;;;;;;;;18.50;64.20;;;;;;5029102;28;1264;-70
2023/05/13 09:21:30;;;;;;;;;;;18.50;64.20;;;;;;5018323;28;1436;-70
2023/05/13 09:24:20;;;;;;;;;;;18.50;64.20;;;;;;5024253;28;1535;-70
2023/05/13 09:26:46;;;;;;;;;;;18.50;64.20;;;;;;5029119;28;1365;-70
2023/05/13 09:29:17;;;;;;;;;;;18.50;64.20;;;;;;5030040;28;888;-70
2023/05/13 09:31:47;;;;;;;;;;;18.50;64.20;;;;;;5029152;28;856;-70
2023/05/13 09:34:13;;;;;;;;;;;18.50;64.20;;;;;;5024406;28;1072;-70
2023/05/13 09:36:39;;;;;;;;;;;18.50;64.20;;;;;;5027034;28;1961;-69
2023/05/13 09:39:04;;;;;;;;;;;18.50;64.20;;;;;;5017297;28;1341;-70
2023/05/13 09:41:30;;;;;;;;;;;18.50;64.20;;;;;;5030147;28;1007;-70
2023/05/13 09:43:56;;;;;;;;;;;18.50;64.20;;;;;;5028609;28;879;-69
2023/05/13 09:46:22;;;;;;;;;;;18.50;64.20;;;;;;5030521;28;1266;-70
2023/05/13 09:48:49;;;;;;;;;;;18.50;64.20;;;;;;5031053;28;880;-70
2023/05/13 09:51:14;;;;;;;;;;;18.50;64.20;;;;;;5026675;28;927;-70
2023/05/13 09:53:40;;;;;;;;;;;18.50;64.20;;;;;;5021853;28;847;-70
2023/05/13 09:56:06;;;;;;;;;;;18.50;64.20;;;;;;5023985;28;1972;-69
2023/05/13 09:58:32;;;;;;;;;;;18.50;64.20;;;;;;5027352;28;2152;-70
2023/05/13 10:00:57;;;;;;;;;;;18.50;64.20;;;;;;5025791;28;1968;-71
2023/05/13 10:03:23;;;;;;;;;;;18.50;64.20;;;;;;5024434;28;1279;-71
2023/05/13 10:05:49;;;;;;;;;;;18.50;64.20;;;;;;5030100;28;1284;-72
2023/05/13 10:08:14;;;;;;;;;;;18.50;64.20;;;;;;5057298;28;889;-71
2023/05/13 10:10:40;;;;;;;;;;;18.50;64.20;;;;;;5030378;28;1590;-72
2023/05/13 10:13:11;;;;;;;;;;;18.50;64.30;;;;;;5025917;28;804;-71
2023/05/13 10:15:51;;;;;;;;;;;18.50;64.20;;;;;;5025839;28;1343;-71
2023/05/13 10:18:17;;;;;;;;;;;18.50;64.30;;;;;;5029051;28;1042;-72
2023/05/13 10:20:42;;;;;;;;;;;18.50;64.30;;;;;;5028015;28;882;-71
2023/05/13 10:23:08;;;;;;;;;;;18.50;64.30;;;;;;5028952;28;866;-71
2023/05/13 10:25:34;;;;;;;;;;;18.50;64.20;;;;;;5014116;28;1335;-71
2023/05/13 10:27:59;;;;;;;;;;;18.50;64.30;;;;;;5027664;28;798;-71
2023/05/13 10:30:26;;;;;;;;;;;18.50;64.30;;;;;;5029329;28;1962;-72
2023/05/13 10:32:52;;;;;;;;;;;18.50;64.30;;;;;;5021927;28;1889;-72
2023/05/13 10:35:18;;;;;;;;;;;18.50;64.30;;;;;;5041703;28;1388;-72
2023/05/13 10:37:52;;;;;;;;;;;18.50;64.30;;;;;;5029871;28;1894;-72
2023/05/13 10:40:38;;;;;;;;;;;18.50;64.30;;;;;;5028112;28;957;-72
2023/05/13 10:43:24;;;;;;;;;;;18.50;64.30;;;;;;5020201;28;876;-71
2023/05/13 10:45:50;;;;;;;;;;;18.50;64.30;;;;;;5021370;28;1355;-72
2023/05/13 10:48:15;;;;;;;;;;;18.50;64.30;;;;;;5025881;28;1078;-71
2023/05/13 10:51:07;;;;;;;;;;;18.50;64.30;;;;;;5026636;28;844;-72
2023/05/13 10:53:49;;;;;;;;;;;18.50;64.30;;;;;;5025942;28;1399;-72
2023/05/13 10:56:15;;;;;;;;;;;18.50;64.30;;;;;;5027690;28;1902;-72
2023/05/13 10:58:40;;;;;;;;;;;18.50;64.40;;;;;;5022584;28;872;-72
2023/05/13 11:01:13;;;;;;;;;;;18.50;64.40;;;;;;5024201;28;805;-72
2023/05/13 11:03:39;;;;;;;;;;;18.50;64.40;;;;;;5041342;28;1310;-71
2023/05/13 11:06:18;;;;;;;;;;;18.50;64.40;;;;;;5024006;28;1239;-71
2023/05/13 11:08:47;;;;;;;;;;;18.50;64.40;;;;;;5029116;28;866;-72
2023/05/13 11:11:17;;;;;;;;;;;18.50;64.40;;;;;;5021667;28;844;-72
2023/05/13 11:13:42;;;;;;;;;;;18.50;64.40;;;;;;5020924;28;833;-71
2023/05/13 11:16:09;;;;;;;;;;;18.50;64.30;;;;;;5024714;28;1910;-72
2023/05/13 11:18:35;;;;;;;;;;;18.50;64.40;;;;;;5028370;28;825;-72
2023/05/13 11:21:02;;;;;;;;;;;18.50;64.40;;;;;;5027916;28;864;-71
2023/05/13 11:23:27;;;;;;;;;;;18.50;64.40;;;;;;5021593;28;923;-71
2023/05/13 11:26:09;;;;;;;;;;;18.50;64.40;;;;;;5027225;28;1294;-70
2023/05/13 11:29:07;;;;;;;;;;;18.50;64.40;;;;;;5022163;28;964;-69
2023/05/13 11:31:42;;;;;;;;;;;18.50;64.10;;;;;;5020900;28;1421;-68
2023/05/13 11:34:10;;;;;;;;;;;18.50;62.10;;;;;;5024105;28;1955;-68
2023/05/13 11:36:36;;;;;;;;;;;18.60;50.50;;;;;;5029848;28;1898;-69
2023/05/13 11:39:12;;;;;;;;;;;18.60;52.90;;;;;;5028306;28;1414;-70
2023/05/13 11:41:48;;;;;;;;;;;18.70;53.60;;;;;;5018782;28;2069;-71
2023/05/13 11:44:14;;;;;;;;;;;18.70;54.20;;;;;;5031990;28;1233;-72
2023/05/13 11:46:49;;;;;;;;;;;18.70;54.70;;;;;;5031620;28;1292;-71
2023/05/13 11:49:35;;;;;;;;;;;18.70;55.80;;;;;;5025609;28;877;-69
2023/05/13 11:52:04;;;;;;;;;;;18.70;56.10;;;;;;5023018;28;1113;-68
2023/05/13 11:54:30;;;;;;;;;;;18.70;56.10;;;;;;5028425;28;875;-69
2023/05/13 11:56:55;;;;;;;;;;;18.80;55.90;;;;;;5025640;28;1979;-71
2023/05/13 11:59:21;;;;;;;;;;;18.80;56.00;;;;;;5028264;28;820;-68
2023/05/13 12:02:00;;;;;;;;;;;18.80;55.10;;;;;;5026806;28;2021;-68
2023/05/13 12:04:31;;;;;;;;;;;18.80;54.90;;;;;;5029262;28;1446;-67
2023/05/13 12:06:56;;;;;;;;;;;18.80;54.30;;;;;;5034025;28;1250;-68
2023/05/13 12:09:22;;;;;;;;;;;18.80;53.30;;;;;;5028229;28;938;-68
2023/05/13 12:11:48;;;;;;;;;;;18.80;53.80;;;;;;5025388;28;942;-68
2023/05/13 12:14:14;;;;;;;;;;;18.80;54.50;;;;;;5023742;28;940;-68
2023/05/13 12:16:40;;;;;;;;;;;18.80;54.10;;;;;;5024289;28;1906;-68
2023/05/13 12:19:06;;;;;;;;;;;18.80;53.60;;;;;;5029445;28;899;-68
2023/05/13 12:21:31;;;;;;;;;;;18.80;53.90;;;;;;5032150;28;1282;-68
2023/05/13 12:23:57;;;;;;;;;;;18.80;54.90;;;;;;5020920;28;892;-68
2023/05/13 12:26:23;;;;;;;;;;;18.80;54.90;;;;;;5034712;28;1310;-68
2023/05/13 12:28:55;;;;;;;;;;;18.80;54.40;;;;;;5028516;28;855;-68
2023/05/13 12:31:20;;;;;;;;;;;18.80;54.40;;;;;;5025741;28;1030;-68
2023/05/13 12:33:48;;;;;;;;;;;18.80;54.60;;;;;;5029172;28;990;-68
2023/05/13 12:36:20;;;;;;;;;;;18.80;54.30;;;;;;5035998;28;1930;-68
2023/05/13 12:38:58;;;;;;;;;;;18.80;54.60;;;;;;5035012;28;1455;-67
2023/05/13 12:41:25;;;;;;;;;;;18.80;54.20;;;;;;5040389;28;813;-68
2023/05/13 12:43:54;;;;;;;;;;;18.80;53.70;;;;;;5019494;28;795;-68
2023/05/13 12:46:20;;;;;;;;;;;18.80;53.40;;;;;;5030071;28;1230;-68
2023/05/13 12:48:45;;;;;;;;;;;18.80;53.60;;;;;;5027618;28;1007;-68
2023/05/13 12:51:11;;;;;;;;;;;18.80;53.90;;;;;;5025770;28;900;-68
2023/05/13 12:53:36;;;;;;;;;;;18.80;52.80;;;;;;5023344;28;872;-68
2023/05/13 12:56:02;;;;;;;;;;;18.90;52.80;;;;;;5025864;28;1967;-68
2023/05/13 12:58:27;;;;;;;;;;;18.80;53.50;;;;;;5030542;28;892;-68
2023/05/13 13:00:53;;;;;;;;;;;18.80;54.00;;;;;;5022575;28;872;-68
2023/05/13 13:03:18;;;;;;;;;;;18.90;54.30;;;;;;5027083;28;1458;-68
2023/05/13 13:05:44;;;;;;;;;;;18.80;54.70;;;;;;5027583;28;1218;-68
2023/05/13 13:08:09;;;;;;;;;;;18.90;54.60;;;;;;5026847;28;946;-68
2023/05/13 13:10:35;;;;;;;;;;;18.90;54.80;;;;;;5028293;28;911;-68
2023/05/13 13:13:00;;;;;;;;;;;18.90;54.70;;;;;;5029091;28;813;-68
2023/05/13 13:15:26;;;;;;;;;;;18.80;54.90;;;;;;5034181;28;1419;-68
2023/05/13 13:17:51;;;;;;;;;;;18.80;54.90;;;;;;5029922;28;1938;-69
2023/05/13 13:20:17;;;;;;;;;;;18.80;55.10;;;;;;5024687;28;873;-68
2023/05/13 13:22:42;;;;;;;;;;;18.80;53.90;;;;;;5033526;28;857;-67
2023/05/13 13:25:08;;;;;;;;;;;18.90;51.70;;;;;;5024006;28;1258;-68
2023/05/13 13:27:33;;;;;;;;;;;18.80;51.60;;;;;;5022799;28;843;-68
2023/05/13 13:29:59;;;;;;;;;;;18.90;50.80;;;;;;5022960;28;796;-68
2023/05/13 13:32:24;;;;;;;;;;;18.80;50.40;;;;;;5023304;28;887;-68
2023/05/13 13:34:50;;;;;;;;;;;18.80;50.20;;;;;;5031138;28;1398;-68
2023/05/13 13:37:15;;;;;;;;;;;18.80;49.60;;;;;;5033007;28;1930;-68
2023/05/13 13:39:41;;;;;;;;;;;18.80;49.00;;;;;;5029023;28;1286;-68
2023/05/13 13:42:06;;;;;;;;;;;18.80;48.60;;;;;;5027591;28;808;-68
2023/05/13 13:44:32;;;;;;;;;;;18.80;48.30;;;;;;5018074;28;892;-68
2023/05/13 13:46:57;;;;;;;;;;;18.80;48.00;;;;;;5024156;28;1351;-68
2023/05/13 13:49:23;;;;;;;;;;;18.80;47.70;;;;;;5024464;28;846;-68
2023/05/13 13:51:50;;;;;;;;;;;18.80;47.50;;;;;;5029971;28;1505;-68
2023/05/13 13:54:15;;;;;;;;;;;18.80;47.80;;;;;;5024793;28;1074;-68
2023/05/13 13:56:41;;;;;;;;;;;18.80;47.70;;;;;;5020484;28;1903;-67
2023/05/13 13:59:06;;;;;;;;;;;18.80;47.70;;;;;;5026818;28;887;-68
2023/05/13 14:01:32;;;;;;;;;;;18.80;47.90;;;;;;5025670;28;899;-68
2023/05/13 14:04:14;;;;;;;;;;;18.80;47.20;;;;;;5028757;28;851;-68
2023/05/13 14:06:39;;;;;;;;;;;18.80;47.20;;;;;;5027439;28;1356;-68
2023/05/13 14:09:05;;;;;;;;;;;18.80;46.60;;;;;;5021354;28;890;-68
2023/05/13 14:11:31;;;;;;;;;;;18.80;46.20;;;;;;5026347;28;875;-68
2023/05/13 14:13:56;;;;;;;;;;;18.80;46.40;;;;;;5019971;28;1129;-68
2023/05/13 14:16:21;;;;;;;;;;;18.80;45.60;;;;;;5028409;28;1906;-68
2023/05/13 14:18:47;;;;;;;;;;;18.80;46.50;;;;;;5030879;28;903;-68
2023/05/13 14:21:13;;;;;;;;;;;18.80;46.10;;;;;;5024421;28;872;-68
2023/05/13 14:23:40;;;;;;;;;;;18.80;46.60;;;;;;5022772;28;887;-68
2023/05/13 14:26:07;;;;;;;;;;;18.80;46.80;;;;;;5026631;28;1358;-68
2023/05/13 14:28:32;;;;;;;;;;;18.80;46.60;;;;;;5030443;28;884;-68
2023/05/13 14:30:58;;;;;;;;;;;18.80;46.10;;;;;;5028789;28;835;-68
2023/05/13 14:33:23;;;;;;;;;;;18.80;46.40;;;;;;5022845;28;1057;-69